Time;durP1;ratioP1;P1;durP2;ratioP2;P2;SDS_P1;SDS_P2;PMS_P1;PMS_P2;Temp;Humidity;BMP_temperature;BMP_pressure;BME280_temperature;BME280_humidity;BME280_pressure;Samples;Min_cycle;Max_cycle;Signal;HPM_P1;HPM_P2
2023/12/05 00:01:44;;;;;;;34.75;18.77;;;;;;;7.11;72.27;100027.72;5010470;28;20041;-46
2023/12/05 00:04:09;;;;;;;36.05;18.75;;;;;;;7.02;72.05;100024.09;5011158;28;20049;-46
2023/12/05 00:06:36;;;;;;;33.15;17.83;;;;;;;6.70;72.75;100023.66;5011455;28;20034;-49
2023/12/05 00:09:02;;;;;;;34.20;18.55;;;;;;;6.93;73.14;100024.84;5010594;28;20184;-45
2023/12/05 00:11:27;;;;;;;36.72;19.13;;;;;;;6.88;72.74;100018.75;5010630;28;20116;-47
2023/12/05 00:13:53;;;;;;;33.83;19.10;;;;;;;7.03;72.24;100021.53;5010374;28;20038;-45
2023/12/05 00:16:18;;;;;;;35.03;18.85;;;;;;;6.77;72.90;100015.97;5012151;28;20041;-45
2023/12/05 00:18:47;;;;;;;35.38;19.10;;;;;;;6.97;73.21;100013.69;5013751;28;20029;-47
2023/12/05 00:21:12;;;;;;;40.35;20.48;;;;;;;7.17;72.03;100024.31;5014727;28;20113;-45
2023/12/05 00:23:37;;;;;;;38.72;20.15;;;;;;;7.18;71.67;100015.69;5014375;28;20547;-46
2023/12/05 00:26:03;;;;;;;37.22;20.50;;;;;;;7.04;72.62;100022.41;5013764;28;20154;-45
2023/12/05 00:28:29;;;;;;;40.22;20.73;;;;;;;7.12;71.94;100016.50;5013854;28;20038;-46
2023/12/05 00:30:54;;;;;;;42.85;21.88;;;;;;;6.95;72.67;100014.53;5013219;28;20092;-46
2023/12/05 00:33:20;;;;;;;43.33;21.98;;;;;;;6.71;73.11;100015.88;5013664;28;20112;-47
2023/12/05 00:35:45;;;;;;;41.75;22.13;;;;;;;6.74;73.57;100021.13;5013420;28;20407;-49
2023/12/05 00:38:10;;;;;;;42.53;22.35;;;;;;;6.81;73.06;100022.97;5012547;28;20484;-45
2023/12/05 00:40:36;;;;;;;41.42;21.60;;;;;;;6.78;72.53;100019.44;5013332;28;20053;-46
2023/12/05 00:43:01;;;;;;;43.40;21.48;;;;;;;6.92;72.63;100020.53;5013604;28;20481;-46
2023/12/05 00:45:27;;;;;;;45.70;21.88;;;;;;;6.69;73.52;100025.38;5013908;28;20037;-49
2023/12/05 00:47:53;;;;;;;44.03;22.38;;;;;;;7.10;71.65;100023.38;5013192;28;20034;-49
2023/12/05 00:50:18;;;;;;;45.33;22.40;;;;;;;7.00;72.49;100018.91;5013345;28;20393;-44
2023/12/05 00:52:43;;;;;;;44.72;22.15;;;;;;;6.93;71.63;100017.09;5013031;28;20034;-45
2023/12/05 00:55:09;;;;;;;43.47;21.50;;;;;;;7.01;71.91;100023.25;5013778;28;20083;-47
2023/12/05 00:57:34;;;;;;;45.17;22.02;;;;;;;6.83;72.12;100018.66;5012912;28;20033;-49
2023/12/05 00:59:59;;;;;;;45.05;22.33;;;;;;;6.87;72.85;100011.81;5012494;28;20464;-45
2023/12/05 01:02:25;;;;;;;44.50;21.95;;;;;;;6.89;72.37;100010.13;5013049;28;20092;-46
2023/12/05 01:04:50;;;;;;;43.83;21.58;;;;;;;6.45;73.91;100009.44;5011301;28;20121;-47
2023/12/05 01:07:15;;;;;;;43.50;21.45;;;;;;;6.96;72.55;100011.06;5013253;28;20034;-47
2023/12/05 01:09:41;;;;;;;47.15;22.92;;;;;;;6.50;73.61;100010.38;5013500;28;20141;-44
2023/12/05 01:12:11;;;;;;;46.30;22.45;;;;;;;6.85;72.91;100006.59;5013434;28;20041;-48
2023/12/05 01:14:36;;;;;;;48.72;22.25;;;;;;;6.60;73.33;100017.44;5011865;28;20034;-48
2023/12/05 01:17:02;;;;;;;46.80;21.77;;;;;;;6.62;73.36;100015.75;5012770;28;20056;-46
2023/12/05 01:19:27;;;;;;;45.08;21.90;;;;;;;6.75;72.88;100012.50;5013191;28;20676;-47
2023/12/05 01:21:53;;;;;;;45.60;21.95;;;;;;;6.86;72.71;100023.03;5012886;28;20092;-44
2023/12/05 01:24:18;;;;;;;47.47;22.00;;;;;;;6.67;73.25;100023.59;5013358;28;20037;-45
2023/12/05 01:26:43;;;;;;;41.85;20.88;;;;;;;6.81;73.26;100028.16;5011357;28;20049;-46
2023/12/05 01:29:09;;;;;;;44.40;22.08;;;;;;;6.98;71.97;100024.91;5011894;28;20156;-49
2023/12/05 01:31:34;;;;;;;43.55;20.60;;;;;;;6.93;72.16;100027.44;5012731;28;20421;-44
2023/12/05 01:33:59;;;;;;;43.20;21.33;;;;;;;6.95;71.96;100027.47;5010680;28;20125;-49
2023/12/05 01:36:26;;;;;;;44.05;21.83;;;;;;;6.83;72.14;100023.84;5012569;28;20088;-46
2023/12/05 01:38:52;;;;;;;44.40;21.70;;;;;;;7.09;71.50;100024.22;5010936;28;20045;-45
2023/12/05 01:41:17;;;;;;;47.45;21.95;;;;;;;6.76;72.91;100022.03;5012600;28;20030;-45
2023/12/05 01:43:42;;;;;;;46.50;21.45;;;;;;;6.98;72.22;100027.50;5011553;28;20065;-44
2023/12/05 01:46:09;;;;;;;44.40;21.25;;;;;;;6.95;72.00;100027.47;5012464;28;20091;-48
2023/12/05 01:48:34;;;;;;;44.85;21.80;;;;;;;6.90;71.48;100022.22;5012208;28;20033;-45
2023/12/05 01:51:02;;;;;;;44.78;21.35;;;;;;;6.95;72.33;100028.34;5011710;28;20507;-45
2023/12/05 01:53:29;;;;;;;48.53;21.88;;;;;;;7.00;71.86;100028.41;5012616;28;20026;-47
2023/12/05 01:55:54;;;;;;;45.42;21.33;;;;;;;6.87;72.49;100029.94;5012323;28;20161;-45
2023/12/05 01:58:20;;;;;;;42.35;20.58;;;;;;;6.97;72.14;100038.72;5010747;28;20491;-47
2023/12/05 02:00:46;;;;;;;43.97;20.42;;;;;;;6.76;72.49;100041.88;5011734;28;20030;-46
2023/12/05 02:03:12;;;;;;;43.70;21.38;;;;;;;6.88;72.26;100039.47;5012647;28;20026;-45
2023/12/05 02:05:37;;;;;;;41.20;20.15;;;;;;;6.74;73.25;100040.97;5013856;28;20038;-45
2023/12/05 02:08:03;;;;;;;40.72;19.73;;;;;;;6.61;73.70;100039.03;5014745;28;20092;-47
2023/12/05 02:10:28;;;;;;;43.17;20.55;;;;;;;6.93;72.68;100038.69;5022695;28;20040;-48
2023/12/05 02:12:54;;;;;;;41.47;20.23;;;;;;;7.08;71.93;100038.00;5027628;28;20062;-46
2023/12/05 02:15:20;;;;;;;43.80;20.70;;;;;;;6.73;72.35;100039.22;5026224;28;20037;-49
2023/12/05 02:18:11;;;;;;;42.83;20.48;;;;;;;6.84;72.60;100045.44;5016209;28;20463;-45
2023/12/05 02:20:48;;;;;;;42.78;20.13;;;;;;;7.25;71.08;100036.56;5011201;28;20160;-45
2023/12/05 02:23:31;;;;;;;42.13;20.50;;;;;;;6.85;72.42;100045.47;5011351;28;20029;-44
2023/12/05 02:25:56;;;;;;;41.67;19.27;;;;;;;6.93;72.21;100040.41;5011388;28;20498;-46
2023/12/05 02:28:24;;;;;;;40.72;19.52;;;;;;;7.00;71.51;100041.38;5012467;28;20109;-43
2023/12/05 02:30:49;;;;;;;41.47;19.30;;;;;;;7.00;72.23;100042.25;5011130;28;20073;-50
2023/12/05 02:33:15;;;;;;;44.78;20.10;;;;;;;6.71;72.63;100044.38;5011746;28;20084;-45
2023/12/05 02:35:40;;;;;;;40.38;19.77;;;;;;;6.75;72.54;100041.00;5011641;28;20560;-44
2023/12/05 02:38:20;;;;;;;41.03;19.42;;;;;;;6.85;72.73;100035.09;5010971;28;20595;-46
2023/12/05 02:41:09;;;;;;;40.55;19.10;;;;;;;7.06;71.58;100037.16;5009825;28;20034;-44
2023/12/05 02:43:46;;;;;;;41.40;19.02;;;;;;;7.07;71.47;100038.91;5011589;28;20030;-48
2023/12/05 02:46:16;;;;;;;40.03;19.13;;;;;;;6.60;73.28;100038.16;5011431;28;20519;-46
2023/12/05 02:48:42;;;;;;;41.45;19.70;;;;;;;6.79;72.31;100040.19;5011321;28;20048;-46
2023/12/05 02:51:08;;;;;;;38.75;19.30;;;;;;;6.88;72.13;100039.47;5010470;28;20468;-46
2023/12/05 02:53:33;;;;;;;40.15;19.50;;;;;;;6.61;72.44;100047.69;5011303;28;20112;-47
2023/12/05 02:55:59;;;;;;;40.75;18.55;;;;;;;6.83;72.65;100044.56;5011038;28;20716;-48
2023/12/05 02:58:25;;;;;;;43.53;19.52;;;;;;;6.37;74.33;100047.28;5011364;28;20034;-49
2023/12/05 03:00:50;;;;;;;40.58;19.40;;;;;;;6.59;73.24;100039.00;5010824;28;20125;-47
2023/12/05 03:03:15;;;;;;;40.38;18.63;;;;;;;6.71;72.90;100046.97;5011085;28;20053;-47
2023/12/05 03:05:41;;;;;;;42.90;19.40;;;;;;;6.97;71.82;100046.50;5011109;28;20026;-47
2023/12/05 03:08:06;;;;;;;42.30;19.05;;;;;;;7.06;71.72;100049.22;5010820;28;20544;-46
2023/12/05 03:10:31;;;;;;;38.33;19.05;;;;;;;6.75;71.81;100053.09;5011097;28;20038;-47
2023/12/05 03:12:56;;;;;;;41.33;19.35;;;;;;;6.64;72.86;100047.75;5010921;28;20029;-47
2023/12/05 03:15:22;;;;;;;37.90;17.80;;;;;;;6.86;72.02;100046.34;5013183;28;20049;-45
2023/12/05 03:17:47;;;;;;;39.80;18.58;;;;;;;6.87;72.28;100046.38;5013045;28;20052;-46
2023/12/05 03:20:14;;;;;;;37.03;17.20;;;;;;;6.53;72.70;100041.50;5014625;28;20396;-47
2023/12/05 03:22:39;;;;;;;39.03;18.55;;;;;;;6.61;73.22;100039.03;5013541;28;20030;-45
2023/12/05 03:25:05;;;;;;;41.13;18.55;;;;;;;6.91;71.95;100037.78;5013271;28;20103;-45
2023/12/05 03:27:30;;;;;;;38.88;19.02;;;;;;;6.73;72.40;100047.00;5013229;28;20126;-45
2023/12/05 03:29:55;;;;;;;41.97;18.45;;;;;;;6.67;72.47;100039.13;5009828;28;20038;-45
2023/12/05 03:32:21;;;;;;;37.85;17.63;;;;;;;6.43;72.80;100045.66;5010594;28;20096;-47
2023/12/05 03:34:47;;;;;;;38.28;17.88;;;;;;;6.72;72.35;100047.84;5010142;28;20038;-45
2023/12/05 03:37:12;;;;;;;40.42;18.48;;;;;;;6.69;72.51;100042.63;5009456;28;20084;-46
2023/12/05 03:39:37;;;;;;;36.65;17.35;;;;;;;6.75;72.54;100047.91;5010355;28;20033;-49
2023/12/05 03:42:03;;;;;;;39.60;18.00;;;;;;;6.77;72.21;100044.47;5010506;28;20501;-45
2023/12/05 03:44:28;;;;;;;39.17;17.83;;;;;;;6.34;73.36;100050.66;5010488;28;20053;-47
2023/12/05 03:46:54;;;;;;;39.13;18.23;;;;;;;6.55;73.29;100037.22;5010243;28;20114;-45
2023/12/05 03:49:19;;;;;;;39.55;17.98;;;;;;;6.67;72.66;100040.00;5010735;28;20032;-45
2023/12/05 03:51:44;;;;;;;36.42;17.08;;;;;;;6.49;73.15;100040.59;5009792;28;20029;-46
2023/12/05 03:54:10;;;;;;;33.38;16.17;;;;;;;6.64;72.48;100045.16;5010555;28;20030;-44
2023/12/05 03:56:35;;;;;;;36.97;16.80;;;;;;;6.33;73.24;100051.53;5010177;28;20053;-47
2023/12/05 03:59:00;;;;;;;35.72;16.40;;;;;;;6.61;72.40;100051.97;5009882;28;20546;-46
2023/12/05 04:01:25;;;;;;;36.85;17.52;;;;;;;6.93;71.64;100049.06;5009914;28;20034;-46
2023/12/05 04:03:51;;;;;;;35.75;16.50;;;;;;;6.38;72.87;100061.97;5009402;28;20437;-46
2023/12/05 04:06:23;;;;;;;33.33;16.13;;;;;;;6.85;71.61;100068.78;5010647;28;20115;-46
2023/12/05 04:08:49;;;;;;;36.15;16.88;;;;;;;6.45;72.40;100072.47;5010483;28;20646;-45
2023/12/05 04:11:15;;;;;;;33.03;17.10;;;;;;;6.73;71.69;100072.91;5010375;28;20033;-43
2023/12/05 04:13:40;;;;;;;34.30;16.20;;;;;;;6.89;71.34;100072.31;5011923;28;20026;-45
2023/12/05 04:16:06;;;;;;;35.65;16.42;;;;;;;6.43;72.92;100075.84;5010675;28;20038;-45
2023/12/05 04:18:31;;;;;;;35.22;16.45;;;;;;;6.99;71.50;100081.09;5010347;28;20041;-48
2023/12/05 04:20:56;;;;;;;36.83;17.88;;;;;;;6.52;72.00;100083.81;5009850;28;20073;-45
2023/12/05 04:23:22;;;;;;;36.08;17.27;;;;;;;6.50;72.33;100077.72;5011171;28;20492;-45
2023/12/05 04:25:47;;;;;;;35.08;17.15;;;;;;;6.63;72.18;100086.56;5010392;28;20034;-45
2023/12/05 04:28:13;;;;;;;39.38;17.98;;;;;;;6.43;72.29;100100.03;5010846;28;20040;-45
2023/12/05 04:30:38;;;;;;;40.85;18.48;;;;;;;6.53;72.62;100109.69;5009850;28;20128;-47
2023/12/05 04:33:03;;;;;;;43.35;18.95;;;;;;;6.50;72.82;100103.59;5009249;28;20026;-46
2023/12/05 04:35:29;;;;;;;38.88;18.88;;;;;;;6.58;72.04;100107.22;5010027;28;20076;-46
2023/12/05 04:37:54;;;;;;;40.97;19.58;;;;;;;6.41;72.01;100106.88;5009543;28;20038;-49
2023/12/05 04:40:19;;;;;;;40.67;19.08;;;;;;;6.65;72.30;100105.59;5010053;28;20030;-47
2023/12/05 04:42:44;;;;;;;39.97;18.67;;;;;;;6.78;71.46;100102.34;5009630;28;20061;-46
2023/12/05 04:45:10;;;;;;;40.88;19.42;;;;;;;6.68;71.49;100114.28;5009924;28;20054;-48
2023/12/05 04:47:35;;;;;;;40.88;19.15;;;;;;;6.24;72.70;100112.59;5009883;28;20467;-46
2023/12/05 04:50:01;;;;;;;43.90;19.08;;;;;;;6.55;72.03;100106.25;5009174;28;20034;-49
2023/12/05 04:52:26;;;;;;;43.90;19.15;;;;;;;6.52;73.02;100114.88;5009687;28;20053;-45
2023/12/05 04:54:51;;;;;;;44.40;19.17;;;;;;;6.25;73.09;100114.38;5009499;28;20531;-48
2023/12/05 04:57:16;;;;;;;46.78;19.52;;;;;;;6.24;73.22;100105.72;5010008;28;20113;-46
2023/12/05 04:59:42;;;;;;;47.80;20.17;;;;;;;6.29;72.61;100113.56;5009844;28;20116;-45
2023/12/05 05:02:07;;;;;;;43.25;19.52;;;;;;;6.52;71.59;100114.88;5009684;28;20091;-47
2023/12/05 05:04:32;;;;;;;42.63;18.98;;;;;;;6.33;72.01;100123.16;5013112;28;20034;-45
2023/12/05 05:06:58;;;;;;;41.92;18.90;;;;;;;6.33;72.15;100125.75;5013243;28;20504;-46
2023/12/05 05:09:23;;;;;;;42.90;18.67;;;;;;;6.24;72.70;100123.84;5013415;28;20033;-53
2023/12/05 05:11:48;;;;;;;42.72;19.35;;;;;;;6.51;72.14;100126.94;5013114;28;20153;-46
2023/12/05 05:14:14;;;;;;;45.28;19.70;;;;;;;6.45;72.23;100125.97;5013641;28;20034;-47
2023/12/05 05:16:39;;;;;;;42.28;20.00;;;;;;;6.25;72.15;100129.88;5013593;28;20473;-45
2023/12/05 05:19:05;;;;;;;44.13;18.60;;;;;;;6.57;71.58;100125.31;5013055;28;20084;-45
2023/12/05 05:21:30;;;;;;;48.00;19.05;;;;;;;6.50;71.71;100130.38;5013550;28;20030;-45
2023/12/05 05:23:56;;;;;;;44.65;18.27;;;;;;;6.39;72.33;100131.03;5013890;28;20034;-51
2023/12/05 05:26:21;;;;;;;46.22;19.40;;;;;;;6.29;71.97;100132.56;5013203;28;20037;-47
2023/12/05 05:28:46;;;;;;;46.33;19.70;;;;;;;6.07;73.54;100139.06;5014623;28;20038;-45
2023/12/05 05:31:12;;;;;;;46.58;20.23;;;;;;;6.51;71.94;100141.59;5013155;28;20408;-46
2023/12/05 05:33:37;;;;;;;47.40;20.02;;;;;;;6.38;72.43;100134.47;5011225;28;20103;-44
2023/12/05 05:36:04;;;;;;;45.58;19.55;;;;;;;6.40;72.04;100135.38;5011986;28;20044;-49
2023/12/05 05:38:29;;;;;;;47.05;19.70;;;;;;;6.75;70.79;100139.44;5013125;28;20040;-47
2023/12/05 05:41:06;;;;;;;41.80;18.90;;;;;;;6.49;71.77;100145.88;5011987;28;20117;-46
2023/12/05 05:43:31;;;;;;;47.05;20.08;;;;;;;6.12;72.49;100146.91;5011174;28;20441;-46
2023/12/05 05:45:57;;;;;;;42.10;18.95;;;;;;;6.48;71.55;100149.31;5012079;28;20104;-46
2023/12/05 05:48:22;;;;;;;45.55;19.50;;;;;;;6.19;72.68;100146.19;5012429;28;20030;-46
2023/12/05 05:50:48;;;;;;;42.92;19.25;;;;;;;6.11;72.94;100148.59;5011538;28;20495;-47
2023/12/05 05:53:14;;;;;;;47.05;18.73;;;;;;;5.72;72.97;100145.19;5012981;28;20107;-50
2023/12/05 05:55:39;;;;;;;44.67;19.85;;;;;;;6.22;72.66;100153.16;5012565;28;20068;-50
2023/12/05 05:58:04;;;;;;;46.03;20.30;;;;;;;6.21;72.34;100160.03;5011900;28;20058;-45
2023/12/05 06:00:30;;;;;;;46.85;18.92;;;;;;;5.65;73.47;100143.31;5012006;28;20459;-46
2023/12/05 06:02:57;;;;;;;45.05;19.73;;;;;;;6.01;73.29;100157.03;5011832;28;20044;-49
2023/12/05 06:05:24;;;;;;;49.83;19.92;;;;;;;5.77;74.18;100155.63;5010607;28;20038;-48
2023/12/05 06:07:50;;;;;;;44.30;19.83;;;;;;;6.13;72.38;100150.34;5012080;28;20040;-49
2023/12/05 06:10:16;;;;;;;42.83;19.08;;;;;;;6.16;73.08;100159.03;5011912;28;20041;-44
2023/12/05 06:12:41;;;;;;;42.97;18.73;;;;;;;6.29;72.50;100160.16;5012513;28;20492;-46
2023/12/05 06:15:07;;;;;;;45.78;19.48;;;;;;;6.28;72.41;100163.63;5012601;28;20087;-44
2023/12/05 06:17:32;;;;;;;40.10;18.90;;;;;;;6.42;71.86;100169.91;5012475;28;20026;-46
2023/12/05 06:19:58;;;;;;;43.22;19.08;;;;;;;6.03;73.29;100182.97;5012007;28;20033;-45
2023/12/05 06:22:23;;;;;;;45.33;20.00;;;;;;;6.07;73.28;100172.69;5012884;28;20488;-44
2023/12/05 06:24:48;;;;;;;43.97;19.00;;;;;;;6.42;72.36;100175.09;5011529;28;20065;-49
2023/12/05 06:27:14;;;;;;;42.72;19.65;;;;;;;6.41;72.12;100183.69;5011680;28;20034;-45
2023/12/05 06:29:39;;;;;;;40.20;18.42;;;;;;;6.05;72.68;100184.72;5011611;28;20069;-46
2023/12/05 06:32:04;;;;;;;46.60;19.73;;;;;;;6.16;72.97;100184.91;5011246;28;20026;-46
2023/12/05 06:34:30;;;;;;;49.35;20.38;;;;;;;6.28;72.40;100186.91;5011466;28;20125;-45
2023/12/05 06:36:55;;;;;;;46.22;20.67;;;;;;;6.10;73.01;100183.09;5010774;28;20061;-46
2023/12/05 06:39:20;;;;;;;45.95;20.00;;;;;;;6.40;71.74;100193.16;5011545;28;20057;-46
2023/12/05 06:41:46;;;;;;;47.15;20.42;;;;;;;5.99;73.50;100184.59;5010930;28;20041;-48
2023/12/05 06:44:12;;;;;;;47.45;20.40;;;;;;;6.34;72.26;100200.81;5011471;28;20030;-50
2023/12/05 06:46:37;;;;;;;47.42;19.65;;;;;;;6.17;72.50;100196.16;5011402;28;20041;-46
2023/12/05 06:49:03;;;;;;;44.13;19.80;;;;;;;6.09;73.17;100208.97;5011115;28;20026;-44
2023/12/05 06:51:28;;;;;;;44.47;19.25;;;;;;;6.11;72.93;100209.84;5009807;28;20049;-48
2023/12/05 06:53:54;;;;;;;45.70;20.30;;;;;;;6.21;72.77;100222.16;5011193;28;20471;-48
2023/12/05 06:56:21;;;;;;;46.35;19.98;;;;;;;6.31;72.33;100225.78;5011411;28;20441;-45
2023/12/05 06:58:47;;;;;;;43.88;19.63;;;;;;;6.48;71.85;100227.84;5009389;28;20029;-46
2023/12/05 07:01:12;;;;;;;43.17;18.95;;;;;;;6.48;71.81;100242.50;5010986;28;20523;-45
2023/12/05 07:03:38;;;;;;;42.63;19.92;;;;;;;6.46;71.70;100239.06;5011135;28;20107;-47
2023/12/05 07:06:05;;;;;;;44.65;19.70;;;;;;;6.32;71.98;100248.25;5010697;28;20543;-47
2023/12/05 07:08:30;;;;;;;43.63;19.17;;;;;;;6.14;72.55;100245.28;5011732;28;20056;-46
2023/12/05 07:10:56;;;;;;;44.95;19.58;;;;;;;6.54;71.67;100247.81;5011397;28;20124;-45
2023/12/05 07:13:22;;;;;;;45.20;18.65;;;;;;;6.51;71.52;100250.38;5011966;28;20045;-48
2023/12/05 07:15:47;;;;;;;43.03;19.65;;;;;;;6.48;71.51;100250.28;5013869;28;20590;-44
2023/12/05 07:18:13;;;;;;;41.70;18.45;;;;;;;6.47;72.04;100256.31;5016858;28;20484;-45
2023/12/05 07:20:38;;;;;;;40.88;19.75;;;;;;;6.21;73.09;100253.22;5017251;28;20034;-45
2023/12/05 07:23:03;;;;;;;44.95;19.63;;;;;;;6.26;72.26;100255.88;5011937;28;20041;-45
2023/12/05 07:25:29;;;;;;;45.22;19.30;;;;;;;6.16;72.50;100257.38;5010758;28;20030;-46
2023/12/05 07:27:54;;;;;;;40.95;19.30;;;;;;;6.53;71.66;100264.19;5010381;28;20061;-46
2023/12/05 07:30:20;;;;;;;42.92;19.33;;;;;;;6.63;70.86;100262.69;5010669;28;20030;-44
2023/12/05 07:32:45;;;;;;;41.80;18.95;;;;;;;6.49;71.91;100265.88;5010321;28;20038;-47
2023/12/05 07:35:10;;;;;;;43.15;19.00;;;;;;;6.41;71.79;100263.94;5010629;28;20026;-46
2023/12/05 07:37:36;;;;;;;46.25;19.67;;;;;;;6.49;71.97;100273.63;5011476;28;20531;-44
2023/12/05 07:40:02;;;;;;;43.63;19.35;;;;;;;6.75;71.22;100273.28;5010973;28;20033;-46
2023/12/05 07:42:27;;;;;;;45.47;18.98;;;;;;;6.33;72.65;100274.16;5011198;28;20037;-45
2023/12/05 07:44:52;;;;;;;49.30;20.13;;;;;;;6.56;71.67;100278.94;5010821;28;20160;-45
2023/12/05 07:47:18;;;;;;;45.83;19.13;;;;;;;6.38;72.53;100279.44;5010796;28;20533;-49
2023/12/05 07:49:47;;;;;;;44.28;19.40;;;;;;;6.46;72.03;100283.06;5010340;28;20048;-46
2023/12/05 07:52:12;;;;;;;47.35;20.08;;;;;;;6.45;71.86;100284.78;5010420;28;20034;-48
2023/12/05 07:54:37;;;;;;;43.47;19.90;;;;;;;6.80;70.97;100293.25;5010813;28;20037;-44
2023/12/05 07:57:03;;;;;;;41.10;18.90;;;;;;;6.81;71.08;100295.00;5010269;28;20439;-44
2023/12/05 07:59:29;;;;;;;44.58;19.73;;;;;;;6.96;70.56;100303.88;5010405;28;20499;-46
2023/12/05 08:01:54;;;;;;;45.47;20.33;;;;;;;6.82;70.78;100303.63;5009971;28;20508;-50
2023/12/05 08:04:19;;;;;;;44.30;20.10;;;;;;;6.93;71.15;100299.53;5010490;28;20030;-45
2023/12/05 08:06:45;;;;;;;43.97;19.95;;;;;;;6.99;70.09;100309.13;5009731;28;20037;-45
2023/12/05 08:09:10;;;;;;;43.55;20.33;;;;;;;6.78;71.75;100315.63;5010436;28;20088;-46
2023/12/05 08:11:35;;;;;;;45.17;20.15;;;;;;;6.69;71.35;100315.47;5012848;28;20062;-46
2023/12/05 08:14:02;;;;;;;43.60;20.65;;;;;;;6.34;72.94;100319.91;5012714;28;20038;-48
2023/12/05 08:16:27;;;;;;;49.22;20.23;;;;;;;6.78;71.09;100325.13;5011028;28;20041;-49
2023/12/05 08:18:52;;;;;;;46.60;21.00;;;;;;;6.95;71.13;100326.34;5010323;28;20044;-47
2023/12/05 08:21:18;;;;;;;48.25;20.80;;;;;;;6.67;71.28;100324.91;5008837;28;20061;-46
2023/12/05 08:23:43;;;;;;;48.75;20.27;;;;;;;6.64;71.80;100326.59;5011263;28;20026;-49
2023/12/05 08:26:08;;;;;;;43.25;20.02;;;;;;;6.67;71.54;100326.63;5012433;28;20140;-45
2023/12/05 08:28:34;;;;;;;48.50;20.15;;;;;;;6.75;71.26;100328.53;5012577;28;20057;-45
2023/12/05 08:31:00;;;;;;;54.60;21.05;;;;;;;6.53;71.37;100340.16;5011001;28;20038;-44
2023/12/05 08:33:25;;;;;;;49.60;20.85;;;;;;;6.83;70.76;100336.47;5014357;28;20092;-48
2023/12/05 08:35:50;;;;;;;49.45;20.30;;;;;;;6.73;71.09;100342.28;5014573;28;20033;-45
2023/12/05 08:38:16;;;;;;;47.25;20.58;;;;;;;6.78;71.60;100349.31;5017508;28;20081;-47
2023/12/05 08:40:41;;;;;;;50.38;20.98;;;;;;;6.50;71.43;100347.88;5017381;28;20516;-45
2023/12/05 08:43:06;;;;;;;50.53;20.05;;;;;;;6.71;71.64;100349.19;5014659;28;20041;-45
2023/12/05 08:45:32;;;;;;;47.17;20.17;;;;;;;6.66;71.87;100358.56;5014343;28;20041;-45
2023/12/05 08:47:57;;;;;;;47.15;19.98;;;;;;;6.69;71.33;100356.03;5014025;28;20041;-50
2023/12/05 08:50:22;;;;;;;53.83;20.23;;;;;;;6.74;71.34;100363.06;5022117;28;20492;-46
2023/12/05 08:52:48;;;;;;;48.88;19.08;;;;;;;7.01;70.40;100365.34;5021187;28;20093;-47
2023/12/05 08:55:14;;;;;;;47.70;21.00;;;;;;;6.77;70.83;100365.69;5014010;28;20676;-44
2023/12/05 08:57:40;;;;;;;51.88;21.88;;;;;;;6.51;72.18;100375.53;5013646;28;20034;-49
2023/12/05 09:00:06;;;;;;;48.92;21.25;;;;;;;6.70;71.30;100378.53;5012858;28;20030;-44
2023/12/05 09:02:32;;;;;;;47.72;20.75;;;;;;;6.88;70.67;100377.19;5013729;28;20506;-46
2023/12/05 09:04:57;;;;;;;49.92;20.75;;;;;;;6.88;70.54;100374.59;5012796;28;20118;-48
2023/12/05 09:07:22;;;;;;;50.95;21.23;;;;;;;7.01;70.07;100374.84;5013269;28;20045;-47
2023/12/05 09:09:48;;;;;;;49.28;21.65;;;;;;;6.48;70.77;100380.63;5012861;28;20093;-47
2023/12/05 09:12:14;;;;;;;47.67;21.20;;;;;;;6.72;70.90;100385.47;5013680;28;20088;-47
2023/12/05 09:14:39;;;;;;;44.20;19.67;;;;;;;6.79;70.58;100384.75;5013597;28;20034;-48
2023/12/05 09:17:05;;;;;;;53.97;20.73;;;;;;;6.72;70.85;100380.28;5013354;28;20113;-46
2023/12/05 09:19:30;;;;;;;47.95;20.90;;;;;;;6.72;70.83;100380.28;5013614;28;20102;-46
2023/12/05 09:21:56;;;;;;;50.58;21.23;;;;;;;6.74;70.98;100388.97;5012766;28;20045;-50
2023/12/05 09:24:21;;;;;;;55.05;21.40;;;;;;;6.81;70.73;100395.16;5013098;28;20505;-44
2023/12/05 09:26:46;;;;;;;49.22;21.20;;;;;;;6.54;70.92;100390.25;5012620;28;20038;-45
2023/12/05 09:29:12;;;;;;;48.05;19.27;;;;;;;6.66;70.95;100394.81;5013091;28;20038;-44
2023/12/05 09:31:38;;;;;;;54.95;21.35;;;;;;;6.42;71.81;100402.94;5012471;28;20046;-44
2023/12/05 09:34:03;;;;;;;48.85;20.15;;;;;;;6.53;71.51;100403.19;5012214;28;20034;-44
2023/12/05 09:36:30;;;;;;;49.85;19.95;;;;;;;6.59;71.23;100416.28;5012753;28;20500;-48
2023/12/05 09:38:56;;;;;;;54.38;20.55;;;;;;;6.89;70.31;100412.59;5012272;28;20096;-46
2023/12/05 09:41:22;;;;;;;54.20;21.00;;;;;;;6.67;71.38;100410.41;5012500;28;20037;-43
2023/12/05 09:43:48;;;;;;;55.75;21.05;;;;;;;6.57;71.63;100423.13;5012209;28;20065;-47
2023/12/05 09:46:17;;;;;;;52.60;21.00;;;;;;;6.76;71.28;100417.50;5012480;28;20034;-47
2023/12/05 09:48:47;;;;;;;55.92;21.15;;;;;;;6.57;71.19;100431.78;5011546;28;20040;-49
2023/12/05 09:51:14;;;;;;;52.70;21.65;;;;;;;6.63;71.15;100443.97;5012223;28;20382;-46
2023/12/05 09:53:41;;;;;;;56.15;21.10;;;;;;;6.71;71.08;100440.69;5012098;28;20033;-48
2023/12/05 09:56:09;;;;;;;49.65;21.10;;;;;;;6.79;70.90;100443.47;5012286;28;20121;-45
2023/12/05 09:58:35;;;;;;;54.40;20.77;;;;;;;6.65;70.88;100453.50;5012343;28;20112;-45
2023/12/05 10:01:02;;;;;;;53.85;21.42;;;;;;;6.67;71.29;100451.84;5011837;28;20053;-48
2023/12/05 10:03:34;;;;;;;53.75;21.13;;;;;;;6.62;71.12;100450.88;5012320;28;20030;-48
2023/12/05 10:06:02;;;;;;;52.00;20.60;;;;;;;6.68;71.12;100447.53;5011980;28;20066;-46
2023/12/05 10:08:28;;;;;;;48.70;20.92;;;;;;;6.81;70.48;100457.34;5012098;28;20500;-46
2023/12/05 10:10:55;;;;;;;49.83;21.42;;;;;;;6.84;70.47;100458.25;5011507;28;20042;-46
2023/12/05 10:13:20;;;;;;;50.80;20.65;;;;;;;6.81;70.35;100460.81;5012987;28;20034;-47
2023/12/05 10:15:46;;;;;;;52.92;21.90;;;;;;;7.08;69.86;100457.91;5012943;28;20037;-43
2023/12/05 10:18:12;;;;;;;49.35;21.27;;;;;;;6.89;70.27;100460.97;5013137;28;20030;-47
2023/12/05 10:20:38;;;;;;;51.38;22.23;;;;;;;6.96;69.75;100460.25;5011914;28;20501;-46
2023/12/05 10:23:03;;;;;;;49.85;21.85;;;;;;;6.74;70.26;100468.41;5010490;28;20030;-45
2023/12/05 10:25:29;;;;;;;48.60;21.52;;;;;;;6.80;69.88;100469.41;5011888;28;20113;-47
2023/12/05 10:28:01;;;;;;;50.08;21.30;;;;;;;6.49;70.95;100477.31;5011376;28;20050;-48
2023/12/05 10:30:33;;;;;;;54.33;21.83;;;;;;;6.72;70.51;100476.13;5011644;28;20111;-44
2023/12/05 10:33:08;;;;;;;51.17;21.55;;;;;;;6.53;70.27;100481.72;5011474;28;20042;-51
2023/12/05 10:35:33;;;;;;;51.83;22.08;;;;;;;6.75;69.90;100485.69;5011908;28;20046;-47
2023/12/05 10:38:04;;;;;;;51.83;21.65;;;;;;;6.60;70.10;100490.50;5011361;28;20038;-49
2023/12/05 10:40:29;;;;;;;49.92;21.15;;;;;;;6.49;70.72;100487.69;5011478;28;20488;-45
2023/12/05 10:42:55;;;;;;;48.75;21.05;;;;;;;6.83;69.95;100497.97;5011518;28;20121;-44
2023/12/05 10:45:20;;;;;;;50.05;20.73;;;;;;;6.73;70.54;100498.59;5011900;28;20030;-44
2023/12/05 10:47:46;;;;;;;43.03;19.42;;;;;;;6.75;69.33;100499.53;5012608;28;20045;-45
2023/12/05 10:50:11;;;;;;;45.10;20.05;;;;;;;6.53;69.72;100500.72;5012016;28;20050;-45
2023/12/05 10:52:37;;;;;;;45.55;19.58;;;;;;;6.67;69.90;100502.78;5012701;28;20058;-43
2023/12/05 10:55:02;;;;;;;45.78;20.27;;;;;;;6.78;69.55;100502.16;5010842;28;20065;-48
2023/12/05 10:57:33;;;;;;;51.80;20.88;;;;;;;6.58;70.25;100505.16;5011404;28;20812;-50
2023/12/05 10:59:59;;;;;;;45.63;20.48;;;;;;;6.69;69.98;100503.69;5012724;28;20049;-42
2023/12/05 11:02:24;;;;;;;51.25;22.00;;;;;;;6.75;69.74;100507.31;5016501;28;20036;-47
2023/12/05 11:04:51;;;;;;;52.63;21.73;;;;;;;6.47;70.59;100513.53;5010568;28;20046;-49
2023/12/05 11:07:16;;;;;;;50.83;22.13;;;;;;;6.80;69.47;100510.00;5011099;28;20488;-48
2023/12/05 11:09:42;;;;;;;46.42;21.77;;;;;;;6.84;69.10;100512.69;5011456;28;20133;-45
2023/12/05 11:12:08;;;;;;;50.25;21.90;;;;;;;6.77;69.28;100520.28;5011413;28;20033;-44